createdAt,value
2022-09-20T00:01:23.468Z,76.75
2022-09-20T00:03:53.962Z,76.63
2022-09-20T00:06:24.768Z,76.45
2022-09-20T00:08:52.459Z,76.34
2022-09-20T00:11:28.791Z,76.49
2022-09-20T00:13:58.801Z,76.25
2022-09-20T00:16:32.382Z,76.04
2022-09-20T00:19:04.291Z,76.12
2022-09-20T00:21:34.427Z,76.52
2022-09-20T00:24:02.068Z,75.92
2022-09-20T00:26:29.770Z,76.37
2022-09-20T00:28:58.838Z,75.94
2022-09-20T00:31:26.176Z,76.27
2022-09-20T00:34:16.461Z,76.24
2022-09-20T00:36:46.600Z,75.96
2022-09-20T00:39:16.116Z,76.23
2022-09-20T00:41:43.432Z,75.78
2022-09-20T00:44:44.491Z,75.79
2022-09-20T00:47:27.054Z,75.71
2022-09-20T00:50:00.250Z,75.85
2022-09-20T00:52:29.332Z,75.94
2022-09-20T00:54:57.375Z,75.89
2022-09-20T00:57:24.745Z,75.91
2022-09-20T00:59:53.963Z,76.24
2022-09-20T01:02:26.926Z,75.89
2022-09-20T01:04:57.804Z,75.86
2022-09-20T01:07:26.106Z,75.69
2022-09-20T01:09:53.450Z,75.27
2022-09-20T01:12:30.356Z,75.70
2022-09-20T01:14:59.462Z,75.42
2022-09-20T01:17:30.271Z,75.65
2022-09-20T01:20:13.542Z,75.31
2022-09-20T01:23:11.263Z,75.64
2022-09-20T01:25:47.266Z,75.19
2022-09-20T01:28:15.413Z,75.18
2022-09-20T01:30:48.556Z,75.32
2022-09-20T01:33:43.338Z,75.40
2022-09-20T01:36:17.083Z,75.61
2022-09-20T01:39:32.834Z,75.26
2022-09-20T01:42:05.307Z,75.43
2022-09-20T01:44:41.204Z,75.70
2022-09-20T01:47:32.699Z,75.82
2022-09-20T01:50:27.551Z,75.57
2022-09-20T01:53:09.886Z,75.59
2022-09-20T01:56:11.679Z,75.73
2022-09-20T01:59:07.176Z,75.41
2022-09-20T02:01:53.147Z,75.99
2022-09-20T02:04:38.594Z,75.95
2022-09-20T02:07:38.424Z,76.15
2022-09-20T02:10:14.500Z,75.78
2022-09-20T02:12:55.123Z,75.77
2022-09-20T02:15:42.129Z,76.11
2022-09-20T02:18:34.204Z,75.83
2022-09-20T02:21:48.250Z,75.89
2022-09-20T02:24:29.870Z,75.57
2022-09-20T02:27:17.716Z,75.78
2022-09-20T02:29:51.846Z,75.59
2022-09-20T02:32:18.993Z,75.66
2022-09-20T02:35:05.705Z,75.72
2022-09-20T02:37:38.937Z,75.80
2022-09-20T02:40:47.499Z,75.35
2022-09-20T02:43:36.380Z,75.35
2022-09-20T02:46:16.899Z,75.13
2022-09-20T02:48:54.027Z,75.56
2022-09-20T02:51:34.394Z,75.39
2022-09-20T02:54:29.218Z,75.79
2022-09-20T02:57:29.375Z,75.83
2022-09-20T03:00:06.908Z,75.17
2022-09-20T03:02:51.499Z,75.40
2022-09-20T03:05:32.537Z,75.44
2022-09-20T03:08:20.859Z,75.56
2022-09-20T03:11:02.413Z,75.15
2022-09-20T03:14:06.699Z,74.92
2022-09-20T03:17:02.570Z,75.13
2022-09-20T03:19:36.049Z,74.96
2022-09-20T03:22:27.322Z,75.22
2022-09-20T03:25:03.347Z,74.87
2022-09-20T03:27:37.152Z,75.27
2022-09-20T03:30:15.332Z,75.29
2022-09-20T03:32:51.032Z,75.58
2022-09-20T03:35:39.339Z,74.98
2022-09-20T03:38:22.706Z,75.33
2022-09-20T03:41:09.956Z,74.97
2022-09-20T03:43:55.769Z,74.97
2022-09-20T03:46:45.399Z,74.61
2022-09-20T03:49:37.551Z,75.45
2022-09-20T03:52:40.105Z,75.14
2022-09-20T03:55:16.253Z,75.08
2022-09-20T03:58:22.220Z,75.03
2022-09-20T04:01:31.438Z,75.16
2022-09-20T04:04:30.896Z,75.01
2022-09-20T04:07:12.527Z,75.18
2022-09-20T04:10:00.817Z,75.32
2022-09-20T04:12:56.255Z,74.83
2022-09-20T04:15:36.357Z,74.81
2022-09-20T04:18:12.443Z,74.76
2022-09-20T04:20:48.674Z,75.18
2022-09-20T04:23:33.914Z,74.79
2022-09-20T04:26:03.592Z,74.99
2022-09-20T04:28:43.428Z,74.51
2022-09-20T04:31:41.492Z,74.92
2022-09-20T04:34:45.111Z,74.41
2022-09-20T04:37:33.465Z,74.90
2022-09-20T04:40:26.258Z,75.49
2022-09-20T04:43:24.596Z,74.75
2022-09-20T04:46:03.648Z,74.74
2022-09-20T04:49:01.285Z,74.45
2022-09-20T04:52:13.202Z,75.39
2022-09-20T04:54:59.178Z,74.87
2022-09-20T04:58:00.743Z,75.09
2022-09-20T05:00:51.981Z,74.77
2022-09-20T05:03:38.133Z,74.82
2022-09-20T05:06:25.521Z,75.15
2022-09-20T05:09:20.454Z,75.02
2022-09-20T05:12:36.217Z,74.78
2022-09-20T05:15:23.648Z,74.63
2022-09-20T05:18:42.307Z,74.64
2022-09-20T05:21:33.564Z,74.90
2022-09-20T05:24:27.646Z,74.49
2022-09-20T05:27:19.705Z,73.86
2022-09-20T05:30:28.767Z,73.34
2022-09-20T05:33:13.028Z,73.54
2022-09-20T05:35:49.206Z,73.68
2022-09-20T05:38:46.687Z,72.96
2022-09-20T05:41:41.239Z,72.74
2022-09-20T05:44:16.199Z,72.57
2022-09-20T05:47:28.305Z,72.35
2022-09-20T05:50:01.239Z,72.55
2022-09-20T05:52:54.913Z,72.22
2022-09-20T05:55:36.883Z,72.42
2022-09-20T05:58:22.078Z,72.19
2022-09-20T06:01:04.516Z,71.98
2022-09-20T06:03:44.288Z,71.71
2022-09-20T06:06:21.797Z,71.97
2022-09-20T06:09:07.177Z,72.01
2022-09-20T06:12:03.732Z,72.12
2022-09-20T06:14:50.910Z,72.47
2022-09-20T06:17:48.643Z,71.99
2022-09-20T06:20:41.716Z,72.10
2022-09-20T06:23:10.255Z,72.00
2022-09-20T06:25:44.962Z,72.09
2022-09-20T06:28:40.595Z,71.29
2022-09-20T06:31:09.245Z,71.49
2022-09-20T06:33:51.213Z,70.45
2022-09-20T06:36:49.889Z,70.31
2022-09-20T06:40:06.779Z,69.59
2022-09-20T06:42:34.268Z,70.43
2022-09-20T06:45:01.418Z,70.07
2022-09-20T06:47:30.692Z,69.75
2022-09-20T06:49:59.337Z,69.82
2022-09-20T06:52:26.681Z,69.56
2022-09-20T06:54:56.364Z,69.20
2022-09-20T06:57:38.147Z,67.88
2022-09-20T07:00:07.074Z,68.41
2022-09-20T07:02:34.590Z,68.26
2022-09-20T07:05:01.722Z,68.23
2022-09-20T07:07:30.456Z,67.70
2022-09-20T07:09:58.662Z,67.43
2022-09-20T07:12:25.767Z,67.48
2022-09-20T07:14:52.910Z,66.67
2022-09-20T07:17:19.914Z,66.65
2022-09-20T07:19:49.999Z,66.58
2022-09-20T07:22:17.164Z,66.05
2022-09-20T07:24:45.080Z,66.19
2022-09-20T07:27:12.873Z,66.10
2022-09-20T07:29:41.264Z,66.40
2022-09-20T07:32:08.651Z,66.05
2022-09-20T07:34:35.630Z,65.70
2022-09-20T07:37:03.433Z,65.49
2022-09-20T07:39:31.064Z,65.39
2022-09-20T07:42:02.397Z,65.58
2022-09-20T07:44:30.040Z,65.54
2022-09-20T07:47:02.274Z,65.03
2022-09-20T07:49:30.445Z,64.79
2022-09-20T07:51:59.443Z,64.84
2022-09-20T07:54:27.740Z,64.62
2022-09-20T07:56:54.861Z,64.45
2022-09-20T07:59:21.939Z,64.49
2022-09-20T08:01:49.074Z,64.71
2022-09-20T08:04:16.236Z,64.11
2022-09-20T08:06:46.757Z,63.81
2022-09-20T08:09:14.348Z,63.24
2022-09-20T08:11:43.629Z,63.10
2022-09-20T08:14:15.736Z,62.16
2022-09-20T08:16:45.771Z,62.22
2022-09-20T08:19:23.329Z,61.29
2022-09-20T08:21:53.429Z,62.08
2022-09-20T08:24:20.613Z,62.23
2022-09-20T08:26:48.645Z,61.95
2022-09-20T08:29:15.904Z,61.66
2022-09-20T08:31:43.594Z,61.52
2022-09-20T08:34:15.064Z,60.63
2022-09-20T08:36:47.522Z,60.88
2022-09-20T08:42:33.340Z,59.60
2022-09-20T08:45:05.493Z,60.37
2022-09-20T08:47:45.455Z,59.96
2022-09-20T08:50:18.068Z,60.72
2022-09-20T08:52:49.382Z,60.69
2022-09-20T08:55:18.078Z,60.89
2022-09-20T08:57:50.376Z,60.60
2022-09-20T09:00:21.313Z,60.66
2022-09-20T09:02:51.989Z,60.51
2022-09-20T09:05:39.624Z,60.35
2022-09-20T09:08:16.677Z,60.30
2022-09-20T09:10:48.278Z,60.56
2022-09-20T09:13:22.971Z,60.24
2022-09-20T09:15:57.055Z,60.14
2022-09-20T09:18:32.535Z,60.37
2022-09-20T09:21:04.354Z,60.73
2022-09-20T09:23:41.587Z,59.95
2022-09-20T09:26:18.518Z,59.84
2022-09-20T09:28:45.460Z,60.29
2022-09-20T09:31:30.370Z,59.66
2022-09-20T09:33:57.495Z,60.41
2022-09-20T09:36:26.285Z,59.74
2022-09-20T09:39:41.219Z,59.10
2022-09-20T09:42:29.012Z,58.64
2022-09-20T09:45:12.212Z,59.01
2022-09-20T09:47:39.322Z,59.63
2022-09-20T09:50:09.912Z,59.00
2022-09-20T09:52:37.163Z,58.89
2022-09-20T09:55:05.967Z,58.39
2022-09-20T09:58:06.584Z,57.31
2022-09-20T10:00:35.927Z,58.32
2022-09-20T10:03:21.060Z,57.17
2022-09-20T10:06:31.575Z,57.71
2022-09-20T10:09:30.677Z,57.49
2022-09-20T10:12:26.447Z,57.70
2022-09-20T10:15:13.448Z,58.06
2022-09-20T10:18:08.718Z,57.62
2022-09-20T10:21:12.514Z,57.58
2022-09-20T10:24:02.428Z,58.19
2022-09-20T10:26:49.077Z,57.75
2022-09-20T10:29:59.352Z,58.08
2022-09-20T10:32:27.274Z,58.67
2022-09-20T10:35:22.656Z,57.62
2022-09-20T10:37:58.669Z,57.59
2022-09-20T10:40:52.298Z,57.77
2022-09-20T10:43:35.993Z,56.98
2022-09-20T10:46:31.437Z,57.15
2022-09-20T10:49:16.848Z,57.56
2022-09-20T10:52:17.114Z,57.17
2022-09-20T10:55:09.089Z,56.96
2022-09-20T10:58:13.925Z,56.92
2022-09-20T11:00:50.906Z,57.32
2022-09-20T11:03:33.209Z,57.47
2022-09-20T11:06:17.727Z,57.32
2022-09-20T11:08:51.755Z,57.55
2022-09-20T11:11:37.811Z,57.26
2022-09-20T11:14:23.098Z,57.25
2022-09-20T11:17:26.567Z,57.06
2022-09-20T11:20:07.266Z,57.42
2022-09-20T11:22:52.790Z,57.48
2022-09-20T11:25:29.596Z,57.73
2022-09-20T11:28:08.431Z,57.66
2022-09-20T11:30:41.983Z,58.29
2022-09-20T11:33:18.696Z,58.17
2022-09-20T11:35:55.515Z,57.29
2022-09-20T11:38:42.083Z,56.81
2022-09-20T11:41:13.625Z,57.44
2022-09-20T11:43:45.502Z,57.41
2022-09-20T11:46:19.495Z,57.63
2022-09-20T11:48:53.409Z,57.48
2022-09-20T11:51:52.275Z,56.93
2022-09-20T11:55:13.938Z,57.10
2022-09-20T11:57:41.037Z,57.09
2022-09-20T12:00:10.310Z,57.29
2022-09-20T12:02:54.271Z,56.42
2022-09-20T12:05:33.785Z,56.72
2022-09-20T12:08:04.357Z,57.34
2022-09-20T12:10:35.372Z,57.73
2022-09-20T12:13:23.612Z,56.97
2022-09-20T12:16:15.050Z,56.58
2022-09-20T12:19:02.803Z,56.44
2022-09-20T12:21:29.996Z,57.25
2022-09-20T12:23:56.888Z,56.79
2022-09-20T12:26:26.622Z,56.16
2022-09-20T12:28:58.919Z,56.16
2022-09-20T12:31:26.460Z,56.62
2022-09-20T12:34:11.913Z,54.06
2022-09-20T12:36:44.827Z,55.04
2022-09-20T12:39:11.741Z,53.89
2022-09-20T12:42:06.143Z,52.35
2022-09-20T12:44:51.381Z,52.16
2022-09-20T12:47:53.207Z,52.34
2022-09-20T12:50:41.718Z,52.62
2022-09-20T12:53:16.841Z,51.96
2022-09-20T12:55:51.679Z,53.35
2022-09-20T12:58:25.109Z,53.08
2022-09-20T13:01:03.863Z,52.82
2022-09-20T13:03:34.946Z,52.93
2022-09-20T13:06:23.126Z,52.39
2022-09-20T13:09:02.317Z,52.67
2022-09-20T13:11:57.116Z,52.84
2022-09-20T13:14:28.049Z,53.49
2022-09-20T13:17:13.885Z,53.72
2022-09-20T13:19:50.008Z,54.13
2022-09-20T13:22:42.164Z,53.97
2022-09-20T13:25:18.426Z,53.78
2022-09-20T13:28:03.621Z,53.96
2022-09-20T13:30:33.761Z,54.05
2022-09-20T13:33:24.535Z,54.24
2022-09-20T13:35:58.858Z,54.89
2022-09-20T13:38:30.863Z,55.16
2022-09-20T13:41:09.264Z,54.96
2022-09-20T13:43:44.642Z,53.58
2022-09-20T13:46:17.224Z,52.25
2022-09-20T13:48:48.590Z,51.75
2022-09-20T13:54:33.572Z,50.39
2022-09-20T13:57:12.119Z,50.69
2022-09-20T13:59:45.307Z,50.96
2022-09-20T14:02:24.957Z,50.82
2022-09-20T14:04:55.701Z,51.47
2022-09-20T14:07:28.354Z,51.82
2022-09-20T14:09:56.822Z,52.38
2022-09-20T14:12:25.045Z,53.12
2022-09-20T14:14:53.211Z,53.50
2022-09-20T14:17:24.507Z,53.76
2022-09-20T14:19:54.734Z,54.12
2022-09-20T14:22:26.401Z,54.15
2022-09-20T14:25:17.543Z,55.18
2022-09-20T14:27:44.750Z,55.44
2022-09-20T14:30:31.668Z,56.00
2022-09-20T14:32:59.919Z,55.73
2022-09-20T14:35:33.005Z,56.17
2022-09-20T14:38:24.469Z,56.48
2022-09-20T14:40:58.171Z,56.63
2022-09-20T14:43:35.323Z,57.24
2022-09-20T14:46:16.134Z,57.58
2022-09-20T14:48:45.590Z,57.45
2022-09-20T14:51:14.437Z,57.81
2022-09-20T14:53:47.124Z,57.85
2022-09-20T14:56:27.714Z,58.44
2022-09-20T14:59:28.783Z,58.93
2022-09-20T15:02:03.665Z,58.29
2022-09-20T15:04:33.238Z,58.48
2022-09-20T15:07:02.999Z,58.69
2022-09-20T15:09:30.262Z,58.68
2022-09-20T15:12:21.496Z,59.63
